Rives, Missouri
Current Conditions -  °F | °C
As of 5:53 PM on Friday 24 Oct 2014 (Local Time) from KHKA Reporting Station
Clear Clear  
Wind Chill: 70°   Ceiling: Unl
Heat Index: 70°   Visibility: 10mi
Dew Point: 57°   Wind: 5mph
Humidity: 63%   Direction: 320°NW
Pressure: 30.07"   Gusts: NA
Location:  36.09°N, 90.01°W
Report Text: KHKA 242253Z AUTO 32004KT 10SM CLR 21/14 A3007 RMK AO2 SLP181 T02110139
Loading
Personal Weather Stations






























Interactive Weather Map
Tropical Storm Tracking
New forecast layout! Learn more

10-Day Weather Forecast

Advertisements
Track Severe Weather on mobile